sensor_id;sensor_type;location;lat;lon;timestamp;temperature;humidity
20670;DHT22;10494;50.868;4.180;2024-02-26T00:01:52;7.60;99.90
20670;DHT22;10494;50.868;4.180;2024-02-26T00:04:18;7.60;99.90
20670;DHT22;10494;50.868;4.180;2024-02-26T00:06:44;7.50;99.90
20670;DHT22;10494;50.868;4.180;2024-02-26T00:09:10;7.60;99.90
20670;DHT22;10494;50.868;4.180;2024-02-26T00:11:36;7.40;99.90
20670;DHT22;10494;50.868;4.180;2024-02-26T00:14:02;7.50;99.90
20670;DHT22;10494;50.868;4.180;2024-02-26T00:16:27;7.40;99.90
20670;DHT22;10494;50.868;4.180;2024-02-26T00:18:53;7.30;99.90
20670;DHT22;10494;50.868;4.180;2024-02-26T00:21:19;7.40;99.90
20670;DHT22;10494;50.868;4.180;2024-02-26T00:23:44;7.40;99.90
20670;DHT22;10494;50.868;4.180;2024-02-26T00:26:10;7.40;99.90
20670;DHT22;10494;50.868;4.180;2024-02-26T00:28:36;7.40;99.90
20670;DHT22;10494;50.868;4.180;2024-02-26T00:31:02;7.40;99.90
20670;DHT22;10494;50.868;4.180;2024-02-26T00:33:28;7.40;99.90
20670;DHT22;10494;50.868;4.180;2024-02-26T00:35:53;7.50;99.90
20670;DHT22;10494;50.868;4.180;2024-02-26T00:38:19;7.40;99.90
20670;DHT22;10494;50.868;4.180;2024-02-26T00:40:44;7.40;99.90
20670;DHT22;10494;50.868;4.180;2024-02-26T00:43:10;7.30;99.90
20670;DHT22;10494;50.868;4.180;2024-02-26T00:45:36;7.40;99.90
20670;DHT22;10494;50.868;4.180;2024-02-26T00:48:01;7.30;99.90
20670;DHT22;10494;50.868;4.180;2024-02-26T00:50:31;7.30;99.90
20670;DHT22;10494;50.868;4.180;2024-02-26T00:52:56;7.30;99.90
20670;DHT22;10494;50.868;4.180;2024-02-26T00:55:22;7.30;99.90
20670;DHT22;10494;50.868;4.180;2024-02-26T00:57:48;7.30;99.90
20670;DHT22;10494;50.868;4.180;2024-02-26T01:00:14;7.40;99.90
20670;DHT22;10494;50.868;4.180;2024-02-26T01:02:40;7.40;99.90
20670;DHT22;10494;50.868;4.180;2024-02-26T01:05:07;7.40;99.90
20670;DHT22;10494;50.868;4.180;2024-02-26T01:07:34;7.40;99.90
20670;DHT22;10494;50.868;4.180;2024-02-26T01:10:04;7.30;99.90
20670;DHT22;10494;50.868;4.180;2024-02-26T01:12:32;7.30;99.90
20670;DHT22;10494;50.868;4.180;2024-02-26T01:14:58;7.30;99.90
20670;DHT22;10494;50.868;4.180;2024-02-26T01:17:23;7.20;99.90
20670;DHT22;10494;50.868;4.180;2024-02-26T01:19:49;7.20;99.90
20670;DHT22;10494;50.868;4.180;2024-02-26T01:22:15;7.20;99.90
20670;DHT22;10494;50.868;4.180;2024-02-26T01:24:40;7.20;99.90
20670;DHT22;10494;50.868;4.180;2024-02-26T01:27:06;7.20;99.90
20670;DHT22;10494;50.868;4.180;2024-02-26T01:29:33;7.20;99.90
20670;DHT22;10494;50.868;4.180;2024-02-26T01:31:58;7.20;99.90
20670;DHT22;10494;50.868;4.180;2024-02-26T01:34:24;7.20;99.90
20670;DHT22;10494;50.868;4.180;2024-02-26T01:36:50;7.10;99.90
20670;DHT22;10494;50.868;4.180;2024-02-26T01:39:15;7.20;99.90
20670;DHT22;10494;50.868;4.180;2024-02-26T01:41:41;7.20;99.90
20670;DHT22;10494;50.868;4.180;2024-02-26T01:44:07;7.10;99.90
20670;DHT22;10494;50.868;4.180;2024-02-26T01:46:34;7.00;99.90
20670;DHT22;10494;50.868;4.180;2024-02-26T01:49:01;7.00;99.90
20670;DHT22;10494;50.868;4.180;2024-02-26T01:51:27;7.10;99.90
20670;DHT22;10494;50.868;4.180;2024-02-26T01:53:54;7.10;99.90
20670;DHT22;10494;50.868;4.180;2024-02-26T01:56:20;7.10;99.90
20670;DHT22;10494;50.868;4.180;2024-02-26T01:58:48;7.00;99.90
20670;DHT22;10494;50.868;4.180;2024-02-26T02:01:16;7.00;99.90
20670;DHT22;10494;50.868;4.180;2024-02-26T02:03:44;7.10;99.90
20670;DHT22;10494;50.868;4.180;2024-02-26T02:06:11;7.00;99.90
20670;DHT22;10494;50.868;4.180;2024-02-26T02:08:37;7.10;99.90
20670;DHT22;10494;50.868;4.180;2024-02-26T02:11:03;7.00;99.90
20670;DHT22;10494;50.868;4.180;2024-02-26T02:13:29;6.90;99.90
20670;DHT22;10494;50.868;4.180;2024-02-26T02:15:55;6.90;99.90
20670;DHT22;10494;50.868;4.180;2024-02-26T02:18:20;7.00;99.90
20670;DHT22;10494;50.868;4.180;2024-02-26T02:20:46;7.10;99.90
20670;DHT22;10494;50.868;4.180;2024-02-26T02:23:12;7.10;99.90
20670;DHT22;10494;50.868;4.180;2024-02-26T02:25:37;7.10;99.90
20670;DHT22;10494;50.868;4.180;2024-02-26T02:28:03;7.10;99.90
20670;DHT22;10494;50.868;4.180;2024-02-26T02:30:31;7.10;99.90
20670;DHT22;10494;50.868;4.180;2024-02-26T02:32:57;7.10;99.90
20670;DHT22;10494;50.868;4.180;2024-02-26T02:35:24;7.00;99.90
20670;DHT22;10494;50.868;4.180;2024-02-26T02:37:56;7.00;99.90
20670;DHT22;10494;50.868;4.180;2024-02-26T02:40:21;6.70;99.90
20670;DHT22;10494;50.868;4.180;2024-02-26T02:42:47;6.80;99.90
20670;DHT22;10494;50.868;4.180;2024-02-26T02:45:12;6.70;99.90
20670;DHT22;10494;50.868;4.180;2024-02-26T02:47:38;6.60;99.90
20670;DHT22;10494;50.868;4.180;2024-02-26T02:50:04;6.60;99.90
20670;DHT22;10494;50.868;4.180;2024-02-26T02:52:30;6.60;99.90
20670;DHT22;10494;50.868;4.180;2024-02-26T02:54:56;6.80;99.90
20670;DHT22;10494;50.868;4.180;2024-02-26T02:57:22;6.80;99.90
20670;DHT22;10494;50.868;4.180;2024-02-26T02:59:47;6.80;99.90
20670;DHT22;10494;50.868;4.180;2024-02-26T03:02:13;6.70;99.90
20670;DHT22;10494;50.868;4.180;2024-02-26T03:04:38;6.90;99.90
20670;DHT22;10494;50.868;4.180;2024-02-26T03:07:04;7.00;99.90
20670;DHT22;10494;50.868;4.180;2024-02-26T03:09:30;7.00;99.90
20670;DHT22;10494;50.868;4.180;2024-02-26T03:11:55;7.00;99.90
20670;DHT22;10494;50.868;4.180;2024-02-26T03:14:21;7.00;99.90
20670;DHT22;10494;50.868;4.180;2024-02-26T03:16:46;6.80;99.90
20670;DHT22;10494;50.868;4.180;2024-02-26T03:19:15;6.90;99.90
20670;DHT22;10494;50.868;4.180;2024-02-26T03:21:41;6.90;99.90
20670;DHT22;10494;50.868;4.180;2024-02-26T03:24:07;7.00;99.90
20670;DHT22;10494;50.868;4.180;2024-02-26T03:26:36;7.00;99.90
20670;DHT22;10494;50.868;4.180;2024-02-26T03:29:01;7.00;99.90
20670;DHT22;10494;50.868;4.180;2024-02-26T03:31:28;6.90;99.90
20670;DHT22;10494;50.868;4.180;2024-02-26T03:33:53;6.90;99.90
20670;DHT22;10494;50.868;4.180;2024-02-26T03:36:19;6.90;99.90
20670;DHT22;10494;50.868;4.180;2024-02-26T03:38:45;6.90;99.90
20670;DHT22;10494;50.868;4.180;2024-02-26T03:41:11;7.00;99.90
20670;DHT22;10494;50.868;4.180;2024-02-26T03:43:36;7.00;99.90
20670;DHT22;10494;50.868;4.180;2024-02-26T03:46:02;6.80;99.90
20670;DHT22;10494;50.868;4.180;2024-02-26T03:48:27;6.90;99.90
20670;DHT22;10494;50.868;4.180;2024-02-26T03:50:53;6.80;99.90
20670;DHT22;10494;50.868;4.180;2024-02-26T03:53:18;6.70;99.90
20670;DHT22;10494;50.868;4.180;2024-02-26T03:55:44;6.80;99.90
20670;DHT22;10494;50.868;4.180;2024-02-26T03:58:12;6.80;99.90
20670;DHT22;10494;50.868;4.180;2024-02-26T04:00:38;6.80;99.90
20670;DHT22;10494;50.868;4.180;2024-02-26T04:03:03;6.90;99.90
20670;DHT22;10494;50.868;4.180;2024-02-26T04:05:29;6.60;99.90
20670;DHT22;10494;50.868;4.180;2024-02-26T04:07:54;6.70;99.90
20670;DHT22;10494;50.868;4.180;2024-02-26T04:10:20;6.70;99.90
20670;DHT22;10494;50.868;4.180;2024-02-26T04:12:46;6.70;99.90
20670;DHT22;10494;50.868;4.180;2024-02-26T04:15:12;6.80;99.90
20670;DHT22;10494;50.868;4.180;2024-02-26T04:17:37;6.60;99.90
20670;DHT22;10494;50.868;4.180;2024-02-26T04:20:04;6.50;99.90
20670;DHT22;10494;50.868;4.180;2024-02-26T04:22:32;6.60;99.90
20670;DHT22;10494;50.868;4.180;2024-02-26T04:24:58;6.60;99.90
20670;DHT22;10494;50.868;4.180;2024-02-26T04:27:24;6.70;99.90
20670;DHT22;10494;50.868;4.180;2024-02-26T04:29:49;6.70;99.90
20670;DHT22;10494;50.868;4.180;2024-02-26T04:32:15;6.80;99.90
20670;DHT22;10494;50.868;4.180;2024-02-26T04:34:40;6.70;99.90
20670;DHT22;10494;50.868;4.180;2024-02-26T04:37:07;6.60;99.90
20670;DHT22;10494;50.868;4.180;2024-02-26T04:39:33;6.60;91.60
20670;DHT22;10494;50.868;4.180;2024-02-26T04:41:59;6.50;99.90
20670;DHT22;10494;50.868;4.180;2024-02-26T04:44:24;6.60;99.90
20670;DHT22;10494;50.868;4.180;2024-02-26T04:46:50;6.60;99.90
20670;DHT22;10494;50.868;4.180;2024-02-26T04:49:15;6.60;99.90
20670;DHT22;10494;50.868;4.180;2024-02-26T04:51:41;6.50;99.90
20670;DHT22;10494;50.868;4.180;2024-02-26T04:54:07;6.40;99.90
20670;DHT22;10494;50.868;4.180;2024-02-26T04:56:32;6.40;99.90
20670;DHT22;10494;50.868;4.180;2024-02-26T04:58:58;6.20;99.90
20670;DHT22;10494;50.868;4.180;2024-02-26T05:01:23;6.20;99.90
20670;DHT22;10494;50.868;4.180;2024-02-26T05:03:49;6.30;99.90
20670;DHT22;10494;50.868;4.180;2024-02-26T05:06:15;6.50;99.90
20670;DHT22;10494;50.868;4.180;2024-02-26T05:08:40;6.60;99.90
20670;DHT22;10494;50.868;4.180;2024-02-26T05:11:06;6.50;99.90
20670;DHT22;10494;50.868;4.180;2024-02-26T05:13:32;6.40;99.90
20670;DHT22;10494;50.868;4.180;2024-02-26T05:15:57;6.30;99.90
20670;DHT22;10494;50.868;4.180;2024-02-26T05:18:23;6.30;99.90
20670;DHT22;10494;50.868;4.180;2024-02-26T05:20:49;6.40;99.90
20670;DHT22;10494;50.868;4.180;2024-02-26T05:23:14;6.30;99.90
20670;DHT22;10494;50.868;4.180;2024-02-26T05:25:40;6.20;99.90
20670;DHT22;10494;50.868;4.180;2024-02-26T05:28:07;6.30;99.90
20670;DHT22;10494;50.868;4.180;2024-02-26T05:30:32;6.40;99.90
20670;DHT22;10494;50.868;4.180;2024-02-26T05:32:58;6.40;99.90
20670;DHT22;10494;50.868;4.180;2024-02-26T05:35:25;6.40;99.90
20670;DHT22;10494;50.868;4.180;2024-02-26T05:37:51;6.40;99.90
20670;DHT22;10494;50.868;4.180;2024-02-26T05:40:17;6.30;99.90
20670;DHT22;10494;50.868;4.180;2024-02-26T05:42:42;6.20;99.90
20670;DHT22;10494;50.868;4.180;2024-02-26T05:45:10;6.30;99.90
20670;DHT22;10494;50.868;4.180;2024-02-26T05:47:36;6.40;99.90
20670;DHT22;10494;50.868;4.180;2024-02-26T05:50:11;6.50;99.90
20670;DHT22;10494;50.868;4.180;2024-02-26T05:52:37;6.30;99.90
20670;DHT22;10494;50.868;4.180;2024-02-26T05:55:06;6.20;99.90
20670;DHT22;10494;50.868;4.180;2024-02-26T05:57:35;6.30;99.90
20670;DHT22;10494;50.868;4.180;2024-02-26T06:00:01;6.30;99.90
20670;DHT22;10494;50.868;4.180;2024-02-26T06:02:30;6.30;99.90
20670;DHT22;10494;50.868;4.180;2024-02-26T06:04:56;6.40;99.90
20670;DHT22;10494;50.868;4.180;2024-02-26T06:07:21;6.50;99.90
20670;DHT22;10494;50.868;4.180;2024-02-26T06:09:47;6.40;99.90
20670;DHT22;10494;50.868;4.180;2024-02-26T06:12:13;6.20;99.90
20670;DHT22;10494;50.868;4.180;2024-02-26T06:14:39;6.20;99.90
20670;DHT22;10494;50.868;4.180;2024-02-26T06:17:05;6.30;99.90
20670;DHT22;10494;50.868;4.180;2024-02-26T06:19:32;6.40;99.90
20670;DHT22;10494;50.868;4.180;2024-02-26T06:21:58;6.30;99.90
20670;DHT22;10494;50.868;4.180;2024-02-26T06:24:23;6.30;99.90
20670;DHT22;10494;50.868;4.180;2024-02-26T06:26:49;6.40;99.90
20670;DHT22;10494;50.868;4.180;2024-02-26T06:29:14;6.40;99.90
20670;DHT22;10494;50.868;4.180;2024-02-26T06:31:40;6.40;99.90
20670;DHT22;10494;50.868;4.180;2024-02-26T06:34:06;6.30;99.90
20670;DHT22;10494;50.868;4.180;2024-02-26T06:36:31;6.50;99.90
20670;DHT22;10494;50.868;4.180;2024-02-26T06:38:57;6.40;99.90
20670;DHT22;10494;50.868;4.180;2024-02-26T06:41:23;6.20;99.90
20670;DHT22;10494;50.868;4.180;2024-02-26T06:43:53;6.20;99.90
20670;DHT22;10494;50.868;4.180;2024-02-26T06:46:19;6.30;99.90
20670;DHT22;10494;50.868;4.180;2024-02-26T06:48:45;6.30;99.90
20670;DHT22;10494;50.868;4.180;2024-02-26T06:51:10;6.20;99.90
20670;DHT22;10494;50.868;4.180;2024-02-26T06:53:36;6.20;99.90
20670;DHT22;10494;50.868;4.180;2024-02-26T06:56:02;6.20;99.90
20670;DHT22;10494;50.868;4.180;2024-02-26T06:58:27;6.10;99.90
20670;DHT22;10494;50.868;4.180;2024-02-26T07:00:53;6.10;99.90
20670;DHT22;10494;50.868;4.180;2024-02-26T07:03:18;6.20;99.90
20670;DHT22;10494;50.868;4.180;2024-02-26T07:05:44;6.20;99.90
20670;DHT22;10494;50.868;4.180;2024-02-26T07:08:11;6.20;99.90
20670;DHT22;10494;50.868;4.180;2024-02-26T07:10:37;6.20;99.90
20670;DHT22;10494;50.868;4.180;2024-02-26T07:13:02;6.00;99.90
20670;DHT22;10494;50.868;4.180;2024-02-26T07:15:28;5.90;99.90
20670;DHT22;10494;50.868;4.180;2024-02-26T07:17:53;6.10;99.90
20670;DHT22;10494;50.868;4.180;2024-02-26T07:20:19;6.20;99.90
20670;DHT22;10494;50.868;4.180;2024-02-26T07:22:45;6.30;99.90
20670;DHT22;10494;50.868;4.180;2024-02-26T07:25:10;6.10;99.90
20670;DHT22;10494;50.868;4.180;2024-02-26T07:27:39;6.10;99.90
20670;DHT22;10494;50.868;4.180;2024-02-26T07:30:06;6.20;99.90
20670;DHT22;10494;50.868;4.180;2024-02-26T07:32:33;6.30;99.90
20670;DHT22;10494;50.868;4.180;2024-02-26T07:34:59;6.20;99.90
20670;DHT22;10494;50.868;4.180;2024-02-26T07:37:24;6.10;99.90
20670;DHT22;10494;50.868;4.180;2024-02-26T07:39:50;6.20;99.90
20670;DHT22;10494;50.868;4.180;2024-02-26T07:42:16;6.10;99.90
20670;DHT22;10494;50.868;4.180;2024-02-26T07:44:41;6.00;99.90
20670;DHT22;10494;50.868;4.180;2024-02-26T07:47:09;6.00;99.90
20670;DHT22;10494;50.868;4.180;2024-02-26T07:49:35;6.20;99.90
20670;DHT22;10494;50.868;4.180;2024-02-26T07:52:00;6.20;99.90
20670;DHT22;10494;50.868;4.180;2024-02-26T07:54:26;6.20;99.90
20670;DHT22;10494;50.868;4.180;2024-02-26T07:56:51;6.20;99.90
20670;DHT22;10494;50.868;4.180;2024-02-26T07:59:17;6.00;99.90
20670;DHT22;10494;50.868;4.180;2024-02-26T08:01:43;6.00;99.90
20670;DHT22;10494;50.868;4.180;2024-02-26T08:04:09;6.00;99.90
20670;DHT22;10494;50.868;4.180;2024-02-26T08:06:34;6.00;99.90
20670;DHT22;10494;50.868;4.180;2024-02-26T08:09:00;6.00;99.90
20670;DHT22;10494;50.868;4.180;2024-02-26T08:11:26;5.90;99.90
20670;DHT22;10494;50.868;4.180;2024-02-26T08:13:53;6.00;99.90
20670;DHT22;10494;50.868;4.180;2024-02-26T08:16:18;5.90;99.90
20670;DHT22;10494;50.868;4.180;2024-02-26T08:18:44;6.00;99.90
20670;DHT22;10494;50.868;4.180;2024-02-26T08:21:10;5.90;99.90
20670;DHT22;10494;50.868;4.180;2024-02-26T08:23:35;5.90;99.90
20670;DHT22;10494;50.868;4.180;2024-02-26T08:26:01;5.90;99.90
20670;DHT22;10494;50.868;4.180;2024-02-26T08:28:26;6.00;99.90
20670;DHT22;10494;50.868;4.180;2024-02-26T08:30:52;6.00;99.90
20670;DHT22;10494;50.868;4.180;2024-02-26T08:33:18;5.90;99.90
20670;DHT22;10494;50.868;4.180;2024-02-26T08:35:43;5.90;99.90
20670;DHT22;10494;50.868;4.180;2024-02-26T08:38:09;5.90;99.90
20670;DHT22;10494;50.868;4.180;2024-02-26T08:40:34;5.90;99.90
20670;DHT22;10494;50.868;4.180;2024-02-26T08:43:00;6.10;99.90
20670;DHT22;10494;50.868;4.180;2024-02-26T08:45:25;5.90;99.90
20670;DHT22;10494;50.868;4.180;2024-02-26T08:47:52;6.00;99.90
20670;DHT22;10494;50.868;4.180;2024-02-26T08:50:18;6.10;99.90
20670;DHT22;10494;50.868;4.180;2024-02-26T08:52:43;6.20;99.90
20670;DHT22;10494;50.868;4.180;2024-02-26T08:55:11;6.30;99.90
20670;DHT22;10494;50.868;4.180;2024-02-26T08:57:38;6.10;99.90
20670;DHT22;10494;50.868;4.180;2024-02-26T09:00:05;6.20;99.90
20670;DHT22;10494;50.868;4.180;2024-02-26T09:02:31;6.30;99.90
20670;DHT22;10494;50.868;4.180;2024-02-26T09:04:56;6.30;99.90
20670;DHT22;10494;50.868;4.180;2024-02-26T09:07:22;6.00;99.90
20670;DHT22;10494;50.868;4.180;2024-02-26T09:09:48;6.00;99.90
20670;DHT22;10494;50.868;4.180;2024-02-26T09:12:13;6.20;99.90
20670;DHT22;10494;50.868;4.180;2024-02-26T09:14:39;6.00;99.90
20670;DHT22;10494;50.868;4.180;2024-02-26T09:17:04;6.20;99.90
20670;DHT22;10494;50.868;4.180;2024-02-26T09:19:31;5.90;99.90
20670;DHT22;10494;50.868;4.180;2024-02-26T09:21:56;6.10;99.90
20670;DHT22;10494;50.868;4.180;2024-02-26T09:24:26;5.90;99.90
20670;DHT22;10494;50.868;4.180;2024-02-26T09:26:52;5.90;99.90
20670;DHT22;10494;50.868;4.180;2024-02-26T09:29:17;5.90;99.90
20670;DHT22;10494;50.868;4.180;2024-02-26T09:31:43;5.90;99.90
20670;DHT22;10494;50.868;4.180;2024-02-26T09:34:12;5.80;99.90
20670;DHT22;10494;50.868;4.180;2024-02-26T09:36:38;5.70;99.90
20670;DHT22;10494;50.868;4.180;2024-02-26T09:39:03;5.70;99.90
20670;DHT22;10494;50.868;4.180;2024-02-26T09:41:30;5.70;99.90
20670;DHT22;10494;50.868;4.180;2024-02-26T09:43:59;5.60;99.90
20670;DHT22;10494;50.868;4.180;2024-02-26T09:46:27;5.80;99.90
20670;DHT22;10494;50.868;4.180;2024-02-26T09:48:53;5.70;99.90
20670;DHT22;10494;50.868;4.180;2024-02-26T09:51:19;5.80;99.90
20670;DHT22;10494;50.868;4.180;2024-02-26T09:53:51;5.70;99.90
20670;DHT22;10494;50.868;4.180;2024-02-26T09:56:18;5.70;99.90
20670;DHT22;10494;50.868;4.180;2024-02-26T09:58:44;5.60;99.90
20670;DHT22;10494;50.868;4.180;2024-02-26T10:01:18;5.60;99.90
20670;DHT22;10494;50.868;4.180;2024-02-26T10:03:54;5.60;99.90
20670;DHT22;10494;50.868;4.180;2024-02-26T10:06:20;5.70;99.90
20670;DHT22;10494;50.868;4.180;2024-02-26T10:08:47;5.60;99.90
20670;DHT22;10494;50.868;4.180;2024-02-26T10:11:14;5.60;99.90
20670;DHT22;10494;50.868;4.180;2024-02-26T10:13:40;5.60;99.90
20670;DHT22;10494;50.868;4.180;2024-02-26T10:16:07;5.70;99.90
20670;DHT22;10494;50.868;4.180;2024-02-26T10:18:52;5.70;99.90
20670;DHT22;10494;50.868;4.180;2024-02-26T10:21:20;5.60;99.90
20670;DHT22;10494;50.868;4.180;2024-02-26T10:23:46;5.70;99.90
20670;DHT22;10494;50.868;4.180;2024-02-26T10:26:13;5.70;99.90
20670;DHT22;10494;50.868;4.180;2024-02-26T10:28:40;5.60;99.90
20670;DHT22;10494;50.868;4.180;2024-02-26T10:31:06;5.70;99.90
20670;DHT22;10494;50.868;4.180;2024-02-26T10:33:38;5.70;99.90
20670;DHT22;10494;50.868;4.180;2024-02-26T10:36:05;5.70;99.90
20670;DHT22;10494;50.868;4.180;2024-02-26T10:38:32;5.70;99.90
20670;DHT22;10494;50.868;4.180;2024-02-26T10:40:58;5.70;99.90
20670;DHT22;10494;50.868;4.180;2024-02-26T10:43:25;5.70;99.90
20670;DHT22;10494;50.868;4.180;2024-02-26T10:45:51;5.70;99.90
20670;DHT22;10494;50.868;4.180;2024-02-26T10:48:17;5.70;99.90
20670;DHT22;10494;50.868;4.180;2024-02-26T10:50:43;5.80;99.90
20670;DHT22;10494;50.868;4.180;2024-02-26T10:53:15;5.80;99.90
20670;DHT22;10494;50.868;4.180;2024-02-26T10:55:44;5.80;99.90
20670;DHT22;10494;50.868;4.180;2024-02-26T10:58:12;5.70;99.90
20670;DHT22;10494;50.868;4.180;2024-02-26T11:00:39;5.60;99.90
20670;DHT22;10494;50.868;4.180;2024-02-26T11:03:06;5.70;99.90
20670;DHT22;10494;50.868;4.180;2024-02-26T11:05:33;5.60;99.90
20670;DHT22;10494;50.868;4.180;2024-02-26T11:08:00;5.70;99.90
20670;DHT22;10494;50.868;4.180;2024-02-26T11:10:29;5.60;99.90
20670;DHT22;10494;50.868;4.180;2024-02-26T11:12:56;5.60;99.90
20670;DHT22;10494;50.868;4.180;2024-02-26T11:15:23;5.70;99.90
20670;DHT22;10494;50.868;4.180;2024-02-26T11:17:52;5.70;99.90
20670;DHT22;10494;50.868;4.180;2024-02-26T11:20:19;5.80;99.90
20670;DHT22;10494;50.868;4.180;2024-02-26T11:22:45;5.80;99.90
20670;DHT22;10494;50.868;4.180;2024-02-26T11:25:11;5.70;99.90
20670;DHT22;10494;50.868;4.180;2024-02-26T11:27:48;5.90;99.90
20670;DHT22;10494;50.868;4.180;2024-02-26T11:30:15;5.80;99.90
20670;DHT22;10494;50.868;4.180;2024-02-26T11:32:44;5.70;99.90
20670;DHT22;10494;50.868;4.180;2024-02-26T11:35:11;5.70;99.90
20670;DHT22;10494;50.868;4.180;2024-02-26T11:37:41;5.60;99.90
20670;DHT22;10494;50.868;4.180;2024-02-26T11:40:17;5.70;99.90
20670;DHT22;10494;50.868;4.180;2024-02-26T11:42:44;5.60;99.90
20670;DHT22;10494;50.868;4.180;2024-02-26T11:48:21;5.80;99.90
20670;DHT22;10494;50.868;4.180;2024-02-26T11:50:57;5.70;99.90
20670;DHT22;10494;50.868;4.180;2024-02-26T11:58:45;5.60;99.90
20670;DHT22;10494;50.868;4.180;2024-02-26T12:01:39;5.60;99.90
20670;DHT22;10494;50.868;4.180;2024-02-26T12:04:07;5.70;99.90
20670;DHT22;10494;50.868;4.180;2024-02-26T12:06:54;5.60;99.90
20670;DHT22;10494;50.868;4.180;2024-02-26T12:09:34;5.70;99.90
20670;DHT22;10494;50.868;4.180;2024-02-26T12:12:07;5.90;99.90
20670;DHT22;10494;50.868;4.180;2024-02-26T12:14:39;5.60;99.90
20670;DHT22;10494;50.868;4.180;2024-02-26T12:17:07;5.70;99.90
20670;DHT22;10494;50.868;4.180;2024-02-26T12:19:37;5.50;99.90
20670;DHT22;10494;50.868;4.180;2024-02-26T12:22:06;5.50;99.90
20670;DHT22;10494;50.868;4.180;2024-02-26T12:24:32;5.50;99.90
20670;DHT22;10494;50.868;4.180;2024-02-26T12:26:58;5.60;99.90
20670;DHT22;10494;50.868;4.180;2024-02-26T12:29:23;5.60;99.90
20670;DHT22;10494;50.868;4.180;2024-02-26T12:31:49;5.60;99.90
20670;DHT22;10494;50.868;4.180;2024-02-26T12:34:15;5.50;99.90
20670;DHT22;10494;50.868;4.180;2024-02-26T12:36:42;5.60;99.90
20670;DHT22;10494;50.868;4.180;2024-02-26T12:39:08;5.50;99.90
20670;DHT22;10494;50.868;4.180;2024-02-26T12:41:35;5.40;99.90
20670;DHT22;10494;50.868;4.180;2024-02-26T12:44:01;5.60;99.90
20670;DHT22;10494;50.868;4.180;2024-02-26T12:46:26;5.60;99.90
20670;DHT22;10494;50.868;4.180;2024-02-26T12:48:54;5.50;99.90
20670;DHT22;10494;50.868;4.180;2024-02-26T12:51:22;5.50;99.90
20670;DHT22;10494;50.868;4.180;2024-02-26T12:53:48;5.50;99.90
20670;DHT22;10494;50.868;4.180;2024-02-26T12:56:16;5.40;99.90
20670;DHT22;10494;50.868;4.180;2024-02-26T12:58:42;5.40;99.90
20670;DHT22;10494;50.868;4.180;2024-02-26T13:01:14;5.60;99.90
20670;DHT22;10494;50.868;4.180;2024-02-26T13:03:40;5.50;99.90
20670;DHT22;10494;50.868;4.180;2024-02-26T13:06:06;5.50;99.90
20670;DHT22;10494;50.868;4.180;2024-02-26T13:08:32;5.70;99.90
20670;DHT22;10494;50.868;4.180;2024-02-26T13:10:59;5.60;99.90
20670;DHT22;10494;50.868;4.180;2024-02-26T13:13:25;5.40;99.90
20670;DHT22;10494;50.868;4.180;2024-02-26T13:16:04;5.40;99.90
20670;DHT22;10494;50.868;4.180;2024-02-26T13:18:31;5.30;99.90
20670;DHT22;10494;50.868;4.180;2024-02-26T13:21:17;5.40;99.90
20670;DHT22;10494;50.868;4.180;2024-02-26T13:23:48;5.40;99.90
20670;DHT22;10494;50.868;4.180;2024-02-26T13:26:14;5.40;99.90
20670;DHT22;10494;50.868;4.180;2024-02-26T13:28:40;5.50;99.90
20670;DHT22;10494;50.868;4.180;2024-02-26T13:31:06;5.40;99.90
20670;DHT22;10494;50.868;4.180;2024-02-26T13:33:33;5.40;99.90
20670;DHT22;10494;50.868;4.180;2024-02-26T13:36:00;5.30;99.90
20670;DHT22;10494;50.868;4.180;2024-02-26T13:38:26;5.40;99.90
20670;DHT22;10494;50.868;4.180;2024-02-26T13:40:52;5.40;99.90
20670;DHT22;10494;50.868;4.180;2024-02-26T13:43:18;5.40;99.90
20670;DHT22;10494;50.868;4.180;2024-02-26T13:45:45;5.40;99.90
20670;DHT22;10494;50.868;4.180;2024-02-26T13:48:12;5.50;99.90
20670;DHT22;10494;50.868;4.180;2024-02-26T13:50:39;5.50;99.90
20670;DHT22;10494;50.868;4.180;2024-02-26T13:53:04;5.50;99.90
20670;DHT22;10494;50.868;4.180;2024-02-26T13:55:31;5.50;99.90
20670;DHT22;10494;50.868;4.180;2024-02-26T13:57:58;5.70;99.90
20670;DHT22;10494;50.868;4.180;2024-02-26T14:00:24;5.70;99.90
20670;DHT22;10494;50.868;4.180;2024-02-26T14:02:50;5.60;99.90
20670;DHT22;10494;50.868;4.180;2024-02-26T14:05:16;5.50;99.90
20670;DHT22;10494;50.868;4.180;2024-02-26T14:07:42;5.30;99.90
20670;DHT22;10494;50.868;4.180;2024-02-26T14:10:09;5.50;99.90
20670;DHT22;10494;50.868;4.180;2024-02-26T14:12:37;5.60;99.90
20670;DHT22;10494;50.868;4.180;2024-02-26T14:15:03;5.50;99.90
20670;DHT22;10494;50.868;4.180;2024-02-26T14:17:30;5.40;99.90
20670;DHT22;10494;50.868;4.180;2024-02-26T14:19:56;5.50;99.90
20670;DHT22;10494;50.868;4.180;2024-02-26T14:22:21;5.50;99.90
20670;DHT22;10494;50.868;4.180;2024-02-26T14:24:47;5.40;99.90
20670;DHT22;10494;50.868;4.180;2024-02-26T14:27:13;5.40;99.90
20670;DHT22;10494;50.868;4.180;2024-02-26T14:29:43;5.40;99.90
20670;DHT22;10494;50.868;4.180;2024-02-26T14:32:12;5.50;99.90
20670;DHT22;10494;50.868;4.180;2024-02-26T14:34:38;5.40;99.90
20670;DHT22;10494;50.868;4.180;2024-02-26T14:37:04;5.40;99.90
20670;DHT22;10494;50.868;4.180;2024-02-26T14:39:31;5.40;99.90
20670;DHT22;10494;50.868;4.180;2024-02-26T14:41:57;5.40;99.90
20670;DHT22;10494;50.868;4.180;2024-02-26T14:44:23;5.40;99.90
20670;DHT22;10494;50.868;4.180;2024-02-26T14:46:49;5.50;99.90
20670;DHT22;10494;50.868;4.180;2024-02-26T14:49:15;5.50;99.90
20670;DHT22;10494;50.868;4.180;2024-02-26T14:51:42;5.50;99.90
20670;DHT22;10494;50.868;4.180;2024-02-26T14:54:11;5.50;99.90
20670;DHT22;10494;50.868;4.180;2024-02-26T14:56:36;5.50;99.90
20670;DHT22;10494;50.868;4.180;2024-02-26T14:59:02;5.50;99.90
20670;DHT22;10494;50.868;4.180;2024-02-26T15:01:28;5.50;99.90
20670;DHT22;10494;50.868;4.180;2024-02-26T15:03:53;5.50;99.90
20670;DHT22;10494;50.868;4.180;2024-02-26T15:06:19;5.60;99.90
20670;DHT22;10494;50.868;4.180;2024-02-26T15:08:44;5.50;99.90
20670;DHT22;10494;50.868;4.180;2024-02-26T15:11:10;5.60;99.90
20670;DHT22;10494;50.868;4.180;2024-02-26T15:13:36;5.50;99.90
20670;DHT22;10494;50.868;4.180;2024-02-26T15:16:02;5.50;99.90
20670;DHT22;10494;50.868;4.180;2024-02-26T15:18:27;5.60;99.90
20670;DHT22;10494;50.868;4.180;2024-02-26T15:20:53;5.50;99.90
20670;DHT22;10494;50.868;4.180;2024-02-26T15:23:18;5.60;99.90
20670;DHT22;10494;50.868;4.180;2024-02-26T15:25:44;5.60;99.90
20670;DHT22;10494;50.868;4.180;2024-02-26T15:28:10;5.60;99.90
20670;DHT22;10494;50.868;4.180;2024-02-26T15:30:39;5.60;99.90
20670;DHT22;10494;50.868;4.180;2024-02-26T15:33:05;5.50;99.90
20670;DHT22;10494;50.868;4.180;2024-02-26T15:35:30;5.50;99.90
20670;DHT22;10494;50.868;4.180;2024-02-26T15:37:56;5.50;99.90
20670;DHT22;10494;50.868;4.180;2024-02-26T15:40:22;5.50;99.90
20670;DHT22;10494;50.868;4.180;2024-02-26T15:42:48;5.40;99.90
20670;DHT22;10494;50.868;4.180;2024-02-26T15:45:15;5.40;99.90
20670;DHT22;10494;50.868;4.180;2024-02-26T15:47:42;5.50;99.90
20670;DHT22;10494;50.868;4.180;2024-02-26T15:50:08;5.50;99.90